Time,TemperatureF,DewpointF,PressureIn,WindDirection,WindDirectionDegrees,WindSpeedMPH,WindSpeedGustMPH,Humidity,HourlyPrecipIn,Conditions,Clouds,dailyrainin,SoftwareType,DateUTC
2013-01-15 00:02:00,37.0,34.0,30.49,West,270,7.0,12.0,89,-99.99,,,-99.99,,2013-01-15 08:02:00,
2013-01-15 00:12:00,37.0,33.0,30.49,WSW,256,5.0,13.0,87,-99.99,,,-99.99,,2013-01-15 08:12:00,
2013-01-15 00:22:00,37.0,34.0,30.49,West,268,5.0,11.0,87,-99.99,,,-99.99,,2013-01-15 08:22:00,
2013-01-15 00:32:00,37.0,33.0,30.49,West,269,6.0,14.0,86,-99.99,,,-99.99,,2013-01-15 08:32:00,
2013-01-15 00:42:00,37.0,33.0,30.50,West,280,7.0,11.0,85,-99.99,,,-99.99,,2013-01-15 08:42:00,
2013-01-15 00:52:00,37.0,33.0,30.50,WNW,283,7.0,16.0,85,-99.99,,,-99.99,,2013-01-15 08:52:00,
2013-01-15 01:02:00,37.0,33.0,30.50,West,274,9.0,14.0,85,-99.99,,,-99.99,,2013-01-15 09:02:00,
2013-01-15 01:12:00,37.0,33.0,30.50,West,268,7.0,13.0,86,-99.99,,,-99.99,,2013-01-15 09:12:00,
2013-01-15 01:22:00,37.0,34.0,30.51,WNW,283,8.0,13.0,86,-99.99,,,-99.99,,2013-01-15 09:22:00,
2013-01-15 01:33:00,37.0,34.0,30.51,WNW,287,10.0,17.0,88,-99.99,,,-99.99,,2013-01-15 09:33:00,
2013-01-15 01:42:00,37.0,34.0,30.51,WNW,290,9.0,14.0,89,-99.99,,,-99.99,,2013-01-15 09:42:00,
2013-01-15 01:52:00,37.0,34.0,30.51,WNW,290,9.0,14.0,89,-99.99,,,-99.99,,2013-01-15 09:52:00,
2013-01-15 02:02:00,37.0,34.0,30.51,WNW,293,9.0,16.0,88,-99.99,,,-99.99,,2013-01-15 10:02:00,
2013-01-15 02:11:00,37.0,34.0,30.51,WNW,290,8.0,10.0,89,-99.99,,,-99.99,,2013-01-15 10:11:00,
2013-01-15 02:22:00,37.0,34.0,30.51,WNW,295,9.0,16.0,89,-99.99,,,-99.99,,2013-01-15 10:22:00,
2013-01-15 02:32:00,37.0,34.0,30.51,WNW,286,11.0,17.0,86,-99.99,,,-99.99,,2013-01-15 10:32:00,
2013-01-15 02:42:00,37.0,34.0,30.51,WNW,291,9.0,14.0,86,-99.99,,,-99.99,,2013-01-15 10:42:00,
2013-01-15 02:52:00,37.0,34.0,30.52,WNW,286,9.0,15.0,87,-99.99,,,-99.99,,2013-01-15 10:52:00,
2013-01-15 03:02:00,37.0,34.0,30.53,West,279,11.0,22.0,89,-99.99,,,-99.99,,2013-01-15 11:02:00,
2013-01-15 03:12:00,37.0,34.0,30.53,West,272,11.0,16.0,91,-99.99,,,-99.99,,2013-01-15 11:12:00,
2013-01-15 03:22:00,36.0,35.0,30.53,West,269,10.0,16.0,92,-99.99,,,-99.99,,2013-01-15 11:22:00,
2013-01-15 03:32:00,36.0,35.0,30.53,WSW,257,8.0,13.0,93,-99.99,,,-99.99,,2013-01-15 11:32:00,
2013-01-15 03:42:00,37.0,35.0,30.54,West,260,11.0,16.0,94,-99.99,,,-99.99,,2013-01-15 11:42:00,
2013-01-15 03:52:00,37.0,35.0,30.54,West,260,11.0,16.0,94,-99.99,,,-99.99,,2013-01-15 11:52:00,
2013-01-15 04:02:00,37.0,35.0,30.54,West,274,9.0,15.0,93,-99.99,,,-99.99,,2013-01-15 12:02:00,
2013-01-15 04:12:00,37.0,35.0,30.54,WNW,282,11.0,20.0,92,-99.99,,,-99.99,,2013-01-15 12:12:00,
2013-01-15 04:22:00,37.0,34.0,30.55,West,280,9.0,16.0,90,-99.99,,,-99.99,,2013-01-15 12:22:00,
2013-01-15 04:32:00,37.0,35.0,30.55,West,278,9.0,18.0,92,-99.99,,,-99.99,,2013-01-15 12:32:00,
2013-01-15 04:42:00,37.0,35.0,30.55,WSW,257,12.0,18.0,93,-99.99,,,-99.99,,2013-01-15 12:42:00,
2013-01-15 04:53:00,37.0,35.0,30.54,WSW,258,10.0,17.0,93,-99.99,,,-99.99,,2013-01-15 12:53:00,
2013-01-15 05:02:00,37.0,35.0,30.54,West,265,9.0,13.0,93,-99.99,,,-99.99,,2013-01-15 13:02:00,
2013-01-15 05:12:00,37.0,35.0,30.55,West,279,7.0,12.0,93,-99.99,,,-99.99,,2013-01-15 13:12:00,
2013-01-15 05:23:00,37.0,35.0,30.55,West,267,10.0,14.0,93,-99.99,,,-99.99,,2013-01-15 13:23:00,
2013-01-15 05:33:00,37.0,35.0,30.55,West,273,6.0,11.0,95,-99.99,,,-99.99,,2013-01-15 13:33:00,
2013-01-15 05:42:00,37.0,35.0,30.54,West,279,6.0,9.0,94,-99.99,,,-99.99,,2013-01-15 13:42:00,
2013-01-15 05:53:00,36.0,34.0,30.54,West,265,7.0,13.0,94,-99.99,,,-99.99,,2013-01-15 13:53:00,
2013-01-15 06:02:00,35.0,34.0,30.54,West,262,4.0,9.0,94,-99.99,,,-99.99,,2013-01-15 14:02:00,
2013-01-15 06:12:00,35.0,33.0,30.54,ENE,76,2.0,3.0,94,-99.99,,,-99.99,,2013-01-15 14:12:00,
2013-01-15 06:23:00,33.0,32.0,30.55,ENE,74,4.0,5.0,95,-99.99,,,-99.99,,2013-01-15 14:23:00,
2013-01-15 06:33:00,31.0,31.0,30.55,ENE,72,2.0,4.0,100,-99.99,,,-99.99,,2013-01-15 14:33:00,
2013-01-15 06:43:00,31.0,31.0,30.55,ENE,77,1.0,3.0,100,-99.99,,,-99.99,,2013-01-15 14:43:00,
2013-01-15 06:53:00,31.0,31.0,30.56,East,81,2.0,3.0,100,-99.99,,,-99.99,,2013-01-15 14:53:00,
2013-01-15 07:03:00,31.0,31.0,30.56,East,90,1.0,2.0,100,-99.99,,,-99.99,,2013-01-15 15:03:00,
2013-01-15 07:12:00,31.0,31.0,30.56,ESE,112,1.0,2.0,100,-99.99,,,-99.99,,2013-01-15 15:12:00,
2013-01-15 07:23:00,31.0,31.0,30.56,South,179,1.0,2.0,100,-99.99,,,-99.99,,2013-01-15 15:23:00,
2013-01-15 07:33:00,30.0,30.0,30.57,ESE,103,1.0,1.0,100,-99.99,,,-99.99,,2013-01-15 15:33:00,
2013-01-15 07:43:00,30.0,30.0,30.57,ESE,103,1.0,1.0,100,-99.99,,,-99.99,,2013-01-15 15:43:00,
2013-01-15 07:52:00,30.0,30.0,30.57,WNW,289,1.0,1.0,106,-99.99,,,-99.99,,2013-01-15 15:52:00,
2013-01-15 08:02:00,30.0,30.0,30.57,WNW,289,1.0,1.0,106,-99.99,,,-99.99,,2013-01-15 16:02:00,
2013-01-15 08:12:00,30.0,30.0,30.59,SSE,163,1.0,1.0,106,-99.99,,,-99.99,,2013-01-15 16:12:00,
2013-01-15 08:22:00,30.0,30.0,30.59,SW,228,1.0,1.0,106,-99.99,,,-99.99,,2013-01-15 16:22:00,
2013-01-15 08:33:00,30.0,30.0,30.60,WSW,255,1.0,2.0,107,-99.99,,,-99.99,,2013-01-15 16:33:00,
2013-01-15 08:42:00,30.0,30.0,30.60,SW,232,0.0,1.0,106,-99.99,,,-99.99,,2013-01-15 16:42:00,
2013-01-15 08:53:00,30.0,30.0,30.61,ESE,104,1.0,1.0,106,-99.99,,,-99.99,,2013-01-15 16:53:00,
2013-01-15 09:03:00,30.0,30.0,30.61,ESE,104,1.0,1.0,106,-99.99,,,-99.99,,2013-01-15 17:03:00,
2013-01-15 09:12:00,31.0,31.0,30.62,WSW,245,1.0,2.0,100,-99.99,,,-99.99,,2013-01-15 17:12:00,
2013-01-15 09:22:00,31.0,31.0,30.62,West,269,2.0,2.0,100,-99.99,,,-99.99,,2013-01-15 17:22:00,
2013-01-15 09:33:00,31.0,31.0,30.63,WNW,288,1.0,2.0,100,-99.99,,,-99.99,,2013-01-15 17:33:00,
2013-01-15 09:42:00,32.0,32.0,30.63,ESE,104,1.0,1.0,100,-99.99,,,-99.99,,2013-01-15 17:42:00,
2013-01-15 09:53:00,32.0,32.0,30.63,ENE,74,1.0,1.0,100,-99.99,,,-99.99,,2013-01-15 17:53:00,
2013-01-15 10:02:00,32.0,32.0,30.63,ENE,74,1.0,1.0,100,-99.99,,,-99.99,,2013-01-15 18:02:00,
2013-01-15 10:12:00,33.0,33.0,30.63,East,92,1.0,1.0,99,-99.99,,,-99.99,,2013-01-15 18:12:00,
2013-01-15 10:23:00,34.0,33.0,30.63,NNW,343,1.0,2.0,97,-99.99,,,-99.99,,2013-01-15 18:23:00,
2013-01-15 10:33:00,34.0,32.0,30.63,North,355,2.0,3.0,93,-99.99,,,-99.99,,2013-01-15 18:33:00,
2013-01-15 10:42:00,34.0,33.0,30.63,North,0,2.0,4.0,94,-99.99,,,-99.99,,2013-01-15 18:42:00,
2013-01-15 10:53:00,34.0,32.0,30.63,NNW,338,2.0,3.0,94,-99.99,,,-99.99,,2013-01-15 18:53:00,
2013-01-15 11:03:00,35.0,34.0,30.64,North,356,3.0,4.0,95,-99.99,,,-99.99,,2013-01-15 19:03:00,
2013-01-15 11:12:00,35.0,33.0,30.65,North,0,3.0,4.0,93,-99.99,,,-99.99,,2013-01-15 19:12:00,
2013-01-15 11:22:00,35.0,33.0,30.65,NNW,336,2.0,3.0,91,-99.99,,,-99.99,,2013-01-15 19:22:00,
2013-01-15 11:33:00,35.0,33.0,30.65,NNW,335,2.0,2.0,94,-99.99,,,-99.99,,2013-01-15 19:33:00,
2013-01-15 11:42:00,35.0,33.0,30.65,WSW,256,1.0,1.0,93,-99.99,,,-99.99,,2013-01-15 19:42:00,
2013-01-15 11:52:00,35.0,34.0,30.65,WSW,244,1.0,2.0,94,-99.99,,,-99.99,,2013-01-15 19:52:00,
2013-01-15 12:03:00,35.0,34.0,30.65,WSW,244,1.0,2.0,94,-99.99,,,-99.99,,2013-01-15 20:03:00,
2013-01-15 12:12:00,36.0,34.0,30.63,South,191,2.0,3.0,94,-99.99,,,-99.99,,2013-01-15 20:12:00,
2013-01-15 12:23:00,37.0,35.0,30.63,WNW,291,1.0,1.0,92,-99.99,,,-99.99,,2013-01-15 20:23:00,
2013-01-15 12:33:00,38.0,36.0,30.62,NE,51,2.0,3.0,90,-99.99,,,-99.99,,2013-01-15 20:33:00,
2013-01-15 12:43:00,39.0,34.0,30.62,NE,51,2.0,4.0,82,-99.99,,,-99.99,,2013-01-15 20:43:00,
2013-01-15 12:52:00,40.0,34.0,30.62,NNE,14,2.0,4.0,78,-99.99,,,-99.99,,2013-01-15 20:52:00,
2013-01-15 13:02:00,42.0,33.0,30.61,NE,44,1.0,2.0,72,-99.99,,,-99.99,,2013-01-15 21:02:00,
2013-01-15 13:12:00,44.0,33.0,30.61,ENE,57,3.0,6.0,67,-99.99,,,-99.99,,2013-01-15 21:12:00,
2013-01-15 13:22:00,44.0,34.0,30.60,North,358,2.0,4.0,68,-99.99,,,-99.99,,2013-01-15 21:22:00,
2013-01-15 13:33:00,45.0,34.0,30.60,North,356,4.0,8.0,67,-99.99,,,-99.99,,2013-01-15 21:33:00,
2013-01-15 13:43:00,44.0,34.0,30.60,NNE,29,1.0,4.0,67,-99.99,,,-99.99,,2013-01-15 21:43:00,
2013-01-15 13:52:00,44.0,35.0,30.60,NW,322,4.0,8.0,69,-99.99,,,-99.99,,2013-01-15 21:52:00,
2013-01-15 14:02:00,45.0,35.0,30.59,NNW,345,4.0,7.0,68,-99.99,,,-99.99,,2013-01-15 22:02:00,
2013-01-15 14:12:00,46.0,35.0,30.59,NE,54,1.0,4.0,64,-99.99,,,-99.99,,2013-01-15 22:12:00,
2013-01-15 14:22:00,46.0,34.0,30.58,SW,214,2.0,4.0,62,-99.99,,,-99.99,,2013-01-15 22:22:00,
2013-01-15 14:32:00,47.0,34.0,30.58,West,281,1.0,2.0,61,-99.99,,,-99.99,,2013-01-15 22:32:00,
2013-01-15 14:43:00,47.0,34.0,30.58,NNE,32,1.0,2.0,59,-99.99,,,-99.99,,2013-01-15 22:43:00,
2013-01-15 14:52:00,49.0,34.0,30.58,NW,313,2.0,3.0,56,-99.99,,,-99.99,,2013-01-15 22:52:00,
2013-01-15 15:02:00,48.0,34.0,30.58,NE,52,3.0,4.0,57,-99.99,,,-99.99,,2013-01-15 23:02:00,
2013-01-15 15:12:00,49.0,34.0,30.58,NE,51,3.0,5.0,56,-99.99,,,-99.99,,2013-01-15 23:12:00,
2013-01-15 15:22:00,49.0,34.0,30.58,ENE,74,4.0,5.0,56,-99.99,,,-99.99,,2013-01-15 23:22:00,
2013-01-15 15:32:00,48.0,34.0,30.58,NE,36,3.0,5.0,57,-99.99,,,-99.99,,2013-01-15 23:32:00,
2013-01-15 15:42:00,47.0,34.0,30.58,NW,312,1.0,3.0,60,-99.99,,,-99.99,,2013-01-15 23:42:00,
2013-01-15 15:53:00,45.0,35.0,30.57,WNW,294,3.0,6.0,66,-99.99,,,-99.99,,2013-01-15 23:53:00,
2013-01-15 16:02:00,46.0,34.0,30.57,SE,142,3.0,5.0,63,-99.99,,,-99.99,,2013-01-16 00:02:00,
2013-01-15 16:12:00,47.0,34.0,30.57,ESE,120,1.0,3.0,61,-99.99,,,-99.99,,2013-01-16 00:12:00,
2013-01-15 16:22:00,46.0,34.0,30.57,WNW,292,0.0,1.0,62,-99.99,,,-99.99,,2013-01-16 00:22:00,
2013-01-15 16:32:00,44.0,34.0,30.57,NNW,341,3.0,4.0,66,-99.99,,,-99.99,,2013-01-16 00:32:00,
2013-01-15 16:42:00,43.0,34.0,30.57,NW,315,3.0,7.0,73,-99.99,,,-99.99,,2013-01-16 00:42:00,
2013-01-15 16:52:00,41.0,34.0,30.57,NNW,337,3.0,5.0,77,-99.99,,,-99.99,,2013-01-16 00:52:00,
2013-01-15 17:02:00,40.0,34.0,30.57,NW,319,3.0,4.0,78,-99.99,,,-99.99,,2013-01-16 01:02:00,
2013-01-15 17:12:00,39.0,34.0,30.57,NW,314,4.0,9.0,84,-99.99,,,-99.99,,2013-01-16 01:12:00,
2013-01-15 17:22:00,38.0,35.0,30.57,WNW,292,7.0,11.0,89,-99.99,,,-99.99,,2013-01-16 01:22:00,
2013-01-15 17:33:00,38.0,36.0,30.57,NW,312,5.0,12.0,93,-99.99,,,-99.99,,2013-01-16 01:33:00,
2013-01-15 17:42:00,37.0,36.0,30.57,NW,312,6.0,15.0,94,-99.99,,,-99.99,,2013-01-16 01:42:00,
2013-01-15 17:52:00,37.0,36.0,30.57,NW,305,7.0,12.0,96,-99.99,,,-99.99,,2013-01-16 01:52:00,
2013-01-15 18:02:00,37.0,36.0,30.58,WNW,297,7.0,14.0,95,-99.99,,,-99.99,,2013-01-16 02:02:00,
2013-01-15 18:12:00,37.0,35.0,30.58,NW,310,6.0,14.0,92,-99.99,,,-99.99,,2013-01-16 02:12:00,
2013-01-15 18:22:00,37.0,35.0,30.58,WNW,286,5.0,11.0,92,-99.99,,,-99.99,,2013-01-16 02:22:00,
2013-01-15 18:32:00,36.0,35.0,30.59,West,262,3.0,9.0,95,-99.99,,,-99.99,,2013-01-16 02:32:00,
2013-01-15 18:42:00,36.0,35.0,30.59,WNW,283,5.0,9.0,96,-99.99,,,-99.99,,2013-01-16 02:42:00,
2013-01-15 18:52:00,36.0,36.0,30.59,West,280,5.0,8.0,98,-99.99,,,-99.99,,2013-01-16 02:52:00,
2013-01-15 19:02:00,36.0,36.0,30.60,WNW,295,4.0,8.0,99,-99.99,,,-99.99,,2013-01-16 03:02:00,
2013-01-15 19:12:00,36.0,36.0,30.60,West,268,2.0,5.0,100,-99.99,,,-99.99,,2013-01-16 03:12:00,
2013-01-15 19:22:00,36.0,36.0,30.61,WNW,297,4.0,7.0,100,-99.99,,,-99.99,,2013-01-16 03:22:00,
2013-01-15 19:32:00,35.0,35.0,30.61,NW,325,1.0,3.0,100,-99.99,,,-99.99,,2013-01-16 03:32:00,
2013-01-15 19:42:00,34.0,34.0,30.61,ESE,107,1.0,1.0,100,-99.99,,,-99.99,,2013-01-16 03:42:00,
2013-01-15 19:52:00,32.0,32.0,30.61,WSW,237,1.0,1.0,100,-99.99,,,-99.99,,2013-01-16 03:52:00,
2013-01-15 20:02:00,32.0,32.0,30.61,WSW,237,1.0,1.0,100,-99.99,,,-99.99,,2013-01-16 04:02:00,
2013-01-15 20:12:00,31.0,31.0,30.62,SSW,202,1.0,1.0,106,-99.99,,,-99.99,,2013-01-16 04:12:00,
2013-01-15 20:22:00,31.0,31.0,30.62,SSW,195,1.0,1.0,106,-99.99,,,-99.99,,2013-01-16 04:22:00,
2013-01-15 20:32:00,31.0,31.0,30.62,SE,141,1.0,1.0,107,-99.99,,,-99.99,,2013-01-16 04:32:00,
2013-01-15 20:42:00,31.0,31.0,30.62,ESE,122,1.0,2.0,107,-99.99,,,-99.99,,2013-01-16 04:42:00,
2013-01-15 20:52:00,31.0,31.0,30.62,East,95,1.0,1.0,107,-99.99,,,-99.99,,2013-01-16 04:52:00,
2013-01-15 21:03:00,31.0,31.0,30.62,WNW,285,0.0,1.0,108,-99.99,,,-99.99,,2013-01-16 05:03:00,
2013-01-15 21:12:00,32.0,32.0,30.62,WSW,245,1.0,3.0,108,-99.99,,,-99.99,,2013-01-16 05:12:00,
2013-01-15 21:22:00,32.0,32.0,30.63,SSE,160,2.0,2.0,108,-99.99,,,-99.99,,2013-01-16 05:22:00,
2013-01-15 21:32:00,32.0,32.0,30.63,SE,135,1.0,1.0,108,-99.99,,,-99.99,,2013-01-16 05:32:00,
2013-01-15 21:42:00,32.0,32.0,30.63,SSE,151,0.0,1.0,107,-99.99,,,-99.99,,2013-01-16 05:42:00,
2013-01-15 21:52:00,32.0,32.0,30.63,SW,218,2.0,2.0,107,-99.99,,,-99.99,,2013-01-16 05:52:00,
2013-01-15 22:02:00,32.0,32.0,30.63,SW,230,0.0,1.0,107,-99.99,,,-99.99,,2013-01-16 06:02:00,
2013-01-15 22:11:00,32.0,32.0,30.63,SW,230,0.0,0.0,106,-99.99,,,-99.99,,2013-01-16 06:11:00,
2013-01-15 22:22:00,33.0,33.0,30.63,SE,143,1.0,1.0,106,-99.99,,,-99.99,,2013-01-16 06:22:00,
2013-01-15 22:32:00,33.0,33.0,30.62,SSE,160,1.0,1.0,100,-99.99,,,-99.99,,2013-01-16 06:32:00,
2013-01-15 22:42:00,33.0,33.0,30.62,SE,134,0.0,0.0,100,-99.99,,,-99.99,,2013-01-16 06:42:00,
2013-01-15 22:52:00,33.0,33.0,30.62,SE,135,1.0,1.0,100,-99.99,,,-99.99,,2013-01-16 06:52:00,
2013-01-15 23:02:00,33.0,33.0,30.62,SE,124,1.0,1.0,100,-99.99,,,-99.99,,2013-01-16 07:02:00,
2013-01-15 23:11:00,33.0,33.0,30.62,SE,130,2.0,3.0,100,-99.99,,,-99.99,,2013-01-16 07:11:00,
2013-01-15 23:22:00,32.0,32.0,30.62,SE,134,2.0,3.0,100,-99.99,,,-99.99,,2013-01-16 07:22:00,
2013-01-15 23:32:00,32.0,32.0,30.62,SSE,163,2.0,2.0,100,-99.99,,,-99.99,,2013-01-16 07:32:00,
2013-01-15 23:42:00,32.0,32.0,30.62,South,170,3.0,3.0,100,-99.99,,,-99.99,,2013-01-16 07:42:00,
2013-01-15 23:52:00,32.0,32.0,30.62,SSW,201,1.0,2.0,100,-99.99,,,-99.99,,2013-01-16 07:52:00,